Track Шведова Ярослав

Time Latitude Longitude Accuracy (66% radius in meters) Altitude (meters) Speed (km/hour) Bearing (degrees) Battery (%) GPS flag
07:42:17 57.203727 60.118880 0 0 0 0 1 delete
07:42:16 57.203728 60.118873 0 0 0 0 1 delete
07:42:15 57.203732 60.118855 0 0 0 0 1 delete
07:42:14 57.203737 60.118833 0 0 0 0 1 delete
07:42:13 57.203743 60.118808 0 0 0 0 1 delete
07:42:12 57.203748 60.118780 0 0 0 0 1 delete
07:42:11 57.203755 60.118745 0 0 0 0 1 delete
07:42:10 57.203763 60.118707 0 0 0 0 1 delete
07:42:09 57.203768 60.118675 0 0 0 0 1 delete
07:42:08 57.203775 60.118638 0 0 0 0 1 delete
07:42:07 57.203788 60.118603 0 0 0 0 1 delete
07:42:06 57.203795 60.118573 0 0 0 0 1 delete
07:42:05 57.203803 60.118537 0 0 0 0 1 delete
07:42:04 57.203812 60.118510 0 0 0 0 1 delete
07:42:03 57.203822 60.118485 0 0 0 0 1 delete
07:42:02 57.203837 60.118452 0 0 0 0 1 delete
07:42:01 57.203845 60.118427 0 0 0 0 1 delete
07:42:00 57.203860 60.118402 0 0 0 0 1 delete
07:41:59 57.203872 60.118372 0 0 0 0 1 delete
07:41:58 57.203880 60.118350 0 0 0 0 1 delete
07:41:57 57.203888 60.118328 0 0 0 0 1 delete
07:41:56 57.203890 60.118312 0 0 0 0 1 delete
07:41:55 57.203892 60.118305 0 0 0 0 1 delete
07:41:54 57.203895 60.118295 0 0 0 0 1 delete
07:41:53 57.203895 60.118297 0 0 0 0 1 delete
07:41:52 57.203895 60.118297 0 0 0 0 1 delete
07:41:51 57.203895 60.118297 0 0 0 0 1 delete
07:41:50 57.203895 60.118297 0 0 0 0 1 delete
07:41:49 57.203895 60.118297 0 0 0 0 1 delete
07:41:48 57.203897 60.118298 0 0 0 0 1 delete
07:41:47 57.203897 60.118298 0 0 0 0 1 delete
07:41:46 57.203897 60.118298 0 0 0 0 1 delete
07:41:45 57.203897 60.118300 0 0 0 0 1 delete
07:41:44 57.203897 60.118298 0 0 0 0 1 delete
07:41:43 57.203895 60.118297 0 0 0 0 1 delete
07:41:42 57.203893 60.118297 0 0 0 0 1 delete
07:41:41 57.203893 60.118302 0 0 0 0 1 delete
07:41:40 57.203895 60.118302 0 0 0 0 1 delete
07:41:39 57.203897 60.118293 0 0 0 0 1 delete
07:41:38 57.203893 60.118293 0 0 0 0 1 delete
07:41:37 57.203892 60.118292 0 0 0 0 1 delete
07:41:36 57.203893 60.118293 0 0 0 0 1 delete
07:41:35 57.203895 60.118292 0 0 0 0 1 delete
07:41:34 57.203895 60.118292 0 0 0 0 1 delete
07:41:33 57.203895 60.118292 0 0 0 0 1 delete
07:41:32 57.203895 60.118292 0 0 0 0 1 delete
07:41:31 57.203895 60.118293 0 0 0 0 1 delete
07:41:30 57.203895 60.118295 0 0 0 0 1 delete
07:41:29 57.203895 60.118297 0 0 0 0 1 delete
07:41:28 57.203895 60.118298 0 0 0 0 1 delete